Bookmark and Share
Track history (hours):
 

Drifting buoy 44915

Last reported at 2012-Jul-03 14:55 UTC. Time now 2014-Apr-18 08:12 UTC.
Position N 40°50' W 054°05'.
Warning: this ship's position is years out of date!

NotesDate/timePositionNaut miles runAvg speedWind from/ knotsBaromVisibWave heightAir tempDewpointWater temp
2012-Jul-03 14:55N 40°50' W 054°05'0 0.0
2012-Jul-03 11:54N 40°50' W 054°05'0 0.0 22.9
2012-Jul-03 11:42N 40°50' W 054°05'0 0.0
2012-Jul-03 07:43N 40°50' W 054°05'0 0.0 22.9
2012-Jul-03 04:39N 40°50' W 054°05'0 0.0
2012-Jul-02 23:37N 40°50' W 054°05'0 0.0 23.0
2012-Jul-02 23:24N 40°50' W 054°05'0 0.0 23.0
2012-Jul-02 20:44N 40°50' W 054°05'0 0.0 22.8
2012-Jul-02 17:58N 40°50' W 054°05'0 0.0
2012-Jul-02 16:21N 40°50' W 054°05'0 0.0 22.7
2012-Jul-02 15:21N 40°50' W 054°05'0 0.0 22.7
2012-Jul-02 09:18N 40°50' W 054°05'0 0.0 22.6
2012-Jul-02 07:58N 40°50' W 054°05'0 0.0 22.6
2012-Jul-02 07:45N 40°50' W 054°05'1713.1 22.6
2012-Jul-02 06:26N 41°07' W 054°12'0 0.0 22.6
2012-Jul-02 04:51N 41°07' W 054°12'0 0.0
2012-Jul-02 01:22N 41°07' W 054°12'0 0.0 22.7
2012-Jul-01 23:48N 41°07' W 054°12'0 0.0 22.7
2012-Jul-01 17:51N 41°07' W 054°12'0 0.0
2012-Jul-01 16:27N 41°07' W 054°12'0 0.0
2012-Jul-01 15:39N 41°07' W 054°12'0 0.0 22.8
2012-Jul-01 12:29N 41°07' W 054°12'1479.1 22.9
2012-Jul-01 12:18N 41°16' W 054°26'0 0.0
2012-Jun-30 16:43N 41°16' W 054°26'0 0.0 22.9
2012-Jun-30 16:24N 41°16' W 054°26'1 0.3
2012-Jun-30 12:54N 41°16' W 054°27'3 7.5 22.6
2012-Jun-30 12:27N 41°17' W 054°32'0 0.0
2012-Jun-30 08:31N 41°17' W 054°32'416.6 22.2
2012-Jun-30 08:17N 41°17' W 054°37'0 0.0 22.2
2012-Jun-30 06:51N 41°17' W 054°37'0 0.0 22.1
2012-Jun-30 05:13N 41°17' W 054°37'0 0.0
2012-Jun-30 00:23N 41°17' W 054°37'0 0.0 21.9
2012-Jun-29 16:39N 41°17' W 054°37'4 1.0 21.9
2012-Jun-29 13:13N 41°17' W 054°42'0 0.0 21.8
2012-Jun-29 08:55N 41°17' W 054°42'0 0.0 21.7
2012-Jun-29 07:00N 41°17' W 054°42'0 0.0 21.7
2012-Jun-29 06:50N 41°17' W 054°42'13 9.1 21.7
2012-Jun-29 05:23N 41°20' W 054°59'0 0.0 21.7
2012-Jun-28 23:24N 41°20' W 054°59'0 0.0 21.8
2012-Jun-28 20:39N 41°20' W 054°59'0 0.0 21.8
2012-Jun-28 18:25N 41°20' W 054°59'0 0.0 21.8
2012-Jun-28 17:01N 41°20' W 054°59'14 1.6 21.8
2012-Jun-28 08:42N 41°20' W 055°17'0 0.0 22.0
2012-Jun-28 07:04N 41°20' W 055°17'0 0.0 22.0
2012-Jun-28 01:07N 41°20' W 055°17'0 0.0 22.1
2012-Jun-27 23:47N 41°20' W 055°17'0 0.0 22.1
2012-Jun-27 23:25N 41°20' W 055°17'0 0.0 22.1
2012-Jun-27 22:50N 41°20' W 055°17'0 0.0 22.1
2012-Jun-27 21:05N 41°20' W 055°17'0 0.0 22.2
2012-Jun-27 19:22N 41°20' W 055°17'0 0.0 22.2
2012-Jun-27 18:40N 41°20' W 055°17'0 0.0 22.2
2012-Jun-27 17:16N 41°20' W 055°17'310.3 22.2
2012-Jun-27 16:58N 41°21' W 055°21'0 0.0 22.2
2012-Jun-27 15:23N 41°21' W 055°21'0 0.0 22.2
2012-Jun-27 13:47N 41°21' W 055°21'0 0.0 22.2
2012-Jun-27 13:10N 41°21' W 055°21'430.3 22.1
2012-Jun-27 13:02N 41°22' W 055°26'0 0.0 22.1
2012-Jun-27 12:24N 41°22' W 055°26'0 0.0 22.1
2012-Jun-27 09:48N 41°22' W 055°26'2 2.4 22.1
2012-Jun-27 08:47N 41°22' W 055°30'0 0.0
2012-Jun-27 07:25N 41°22' W 055°30'6113.2 22.2
2012-Jun-27 07:22N 41°20' W 055°37'0 0.0 22.2
2012-Jun-27 07:09N 41°20' W 055°37'0 0.0 22.2
2012-Jun-27 05:48N 41°20' W 055°37'0 0.0 22.3
2012-Jun-27 01:30N 41°20' W 055°37'110.2 22.3
2012-Jun-27 01:22N 41°20' W 055°39'0 0.0 22.3
2012-Jun-27 00:49N 41°20' W 055°39'2 0.9 22.3
2012-Jun-26 22:27N 41°20' W 055°41'2 1.7 22.3
2012-Jun-26 21:27N 41°21' W 055°44'0 0.0 22.3
2012-Jun-26 17:21N 41°21' W 055°44'0 0.0 22.5
2012-Jun-26 17:12N 41°21' W 055°44'1 0.5 22.5
2012-Jun-26 15:40N 41°21' W 055°45'2 0.7
2012-Jun-26 13:19N 41°21' W 055°47'117.2 22.2
2012-Jun-26 13:16N 41°20' W 055°47'0 0.0 22.2
2012-Jun-26 12:49N 41°20' W 055°47'0 0.0 22.2
2012-Jun-26 12:27N 41°20' W 055°47'0 0.4 22.2
2012-Jun-26 11:41N 41°20' W 055°48'1 2.3 22.2
2012-Jun-26 11:03N 41°18' W 055°49'0 0.0 22.2
2012-Jun-26 10:01N 41°18' W 055°49'0 0.0
2012-Jun-26 08:26N 41°18' W 055°49'111.1 22.2
2012-Jun-26 08:23N 41°18' W 055°49'0 0.0 22.2
2012-Jun-26 07:32N 41°18' W 055°49'0 0.0
2012-Jun-26 07:26N 41°18' W 055°49'0 4.1 22.1
2012-Jun-26 07:19N 41°18' W 055°49'1 0.2 22.1
2012-Jun-26 04:11N 41°18' W 055°50'0 0.0 22.2
2012-Jun-26 01:52N 41°18' W 055°50'0 0.5 22.3
2012-Jun-26 00:59N 41°18' W 055°50'0 0.0 22.3
2012-Jun-26 00:10N 41°18' W 055°50'232.3 22.3
2012-Jun-26 00:06N 41°17' W 055°53'0 0.0 22.3
2012-Jun-25 21:54N 41°17' W 055°53'1 0.4 22.5
2012-Jun-25 20:14N 41°17' W 055°53'112.5 22.6
2012-Jun-25 20:11N 41°17' W 055°53'1 0.6 22.6
2012-Jun-25 19:05N 41°17' W 055°53'1 2.1 22.6
2012-Jun-25 18:32N 41°16' W 055°54'0 0.0 22.6
2012-Jun-25 17:36N 41°16' W 055°54'0 0.3 22.6
2012-Jun-25 17:23N 41°16' W 055°54'3 1.7 22.6
2012-Jun-25 15:55N 41°13' W 055°54'0 0.0 22.3
2012-Jun-25 14:21N 41°13' W 055°54'0 0.0 22.1
2012-Jun-25 13:26N 41°13' W 055°54'0 0.0 22.0
2012-Jun-25 11:45N 41°13' W 055°54'0 0.0 21.9
2012-Jun-25 11:26N 41°13' W 055°54'0 0.0 21.9
2012-Jun-25 10:25N 41°13' W 055°54'0 0.0 21.8
2012-Jun-25 08:49N 41°13' W 055°54'0 0.0 21.8
2012-Jun-25 07:30N 41°13' W 055°54'0 0.0 21.8
2012-Jun-25 06:09N 41°13' W 055°54'2 6.7 21.8
2012-Jun-25 05:50N 41°11' W 055°54'0 0.0 21.8
2012-Jun-25 02:11N 41°11' W 055°54'0 0.0 21.8
2012-Jun-25 01:11N 41°11' W 055°54'0 0.6 21.8
2012-Jun-25 00:25N 41°11' W 055°54'0 0.1 21.8
2012-Jun-24 23:33N 41°11' W 055°54'1 3.9 21.8
2012-Jun-24 23:14N 41°10' W 055°55'0 0.0 21.8
2012-Jun-24 21:34N 41°10' W 055°55'0 0.0 21.9
2012-Jun-24 20:41N 41°10' W 055°55'136.1 21.9
2012-Jun-24 20:39N 41°08' W 055°55'0 0.0 21.9
2012-Jun-24 19:07N 41°08' W 055°55'0 0.0 21.9
2012-Jun-24 17:48N 41°08' W 055°55'1 3.4 22.0
2012-Jun-24 17:31N 41°07' W 055°55'1 0.7 22.0
2012-Jun-24 16:07N 41°07' W 055°55'0 0.0 22.0
2012-Jun-24 14:47N 41°07' W 055°55'1 0.6 22.0
2012-Jun-24 13:09N 41°06' W 055°55'1 0.9 22.0
2012-Jun-24 12:04N 41°05' W 055°55'0 0.0 21.9
2012-Jun-24 11:56N 41°05' W 055°55'218.8 21.8
2012-Jun-24 11:50N 41°03' W 055°54'0 0.0 21.8
2012-Jun-24 10:10N 41°03' W 055°54'0 0.0 21.8
2012-Jun-24 09:18N 41°03' W 055°54'110.1 21.7
2012-Jun-24 09:12N 41°02' W 055°53'0 0.0 21.7
2012-Jun-24 07:56N 41°02' W 055°53'0 0.0 21.8
2012-Jun-24 07:43N 41°02' W 055°53'0 1.5 21.8
2012-Jun-24 07:40N 41°02' W 055°53'1 0.6 21.8
2012-Jun-24 06:16N 41°02' W 055°53'110.9 21.8
2012-Jun-24 06:11N 41°01' W 055°53'0 0.0 21.8
2012-Jun-24 06:00N 41°01' W 055°53'0 0.0 21.8
2012-Jun-24 04:38N 41°01' W 055°53'3 0.5 21.8
2012-Jun-23 23:43N 40°58' W 055°53'0 0.0 21.8
2012-Jun-23 23:42N 40°58' W 055°53'324.2 21.8
2012-Jun-23 23:34N 40°55' W 055°52'0 0.0 21.8
2012-Jun-23 23:12N 40°55' W 055°52'0 0.0 21.8
2012-Jun-23 22:04N 40°55' W 055°52'0 0.0 21.9
2012-Jun-23 21:04N 40°55' W 055°52'0 0.0 21.9
2012-Jun-23 19:22N 40°55' W 055°52'244.1 21.9
2012-Jun-23 19:19N 40°53' W 055°51'0 0.0 21.9
2012-Jun-23 17:49N 40°53' W 055°51'0 0.0
2012-Jun-23 17:44N 40°53' W 055°51'2 1.3 21.8
2012-Jun-23 16:19N 40°52' W 055°49'   21.8

Dump ship's entire track history

sailing weather and tide predictions

Buoy 44915